Skip to Main Content
SEARCH:
Location Air RH Dwp Precip Type Wind Speed Wind Gust Direction Pavement Temperature Date/Time
Hatem Bridge US 40 E/B 43 100 43 None Calm Calm SE 45 - 45 1/21/2017 8:28:00 PM
I-270 at I-370 48 97 47 None Calm Calm S 48 - 48 1/21/2017 8:25:00 PM
I-270 at MD-109 48 100 48 None Calm Calm NW 49 - 49 1/21/2017 8:25:00 PM
I-495 at American Legion Bridge 49 100 49 None Calm 5 mph SE 50 - 51 1/21/2017 8:25:00 PM
I-68 at MD-219 54 79 48 None 4 mph 9 mph SW 51 - 52 1/21/2017 8:25:00 PM
I-68 at Savage Mt 47 93 45 None Calm 4 mph N 48 - 48 1/21/2017 8:25:00 PM
I-68 at Sideling Hill 43 100 43 None Calm Calm NW 44 - 44 1/21/2017 8:25:00 PM
I-68 at WV Line 50 93 48 None Calm Calm W 50 - 53 1/21/2017 8:25:00 PM
I-695 at I-83 45 97 44 None Calm 6 mph N 45 - 47 1/21/2017 8:25:00 PM
I-70 at Fred-Wash Co. 45 100 45 None Calm 4 mph E 46 - 46 1/21/2017 8:25:00 PM
I-70 at I-695 45 100 45 None Calm 4 mph SE 46 - 48 1/21/2017 8:25:00 PM
I-70 at I-81 45 100 45 None Calm 6 mph N 45 - 45 1/21/2017 8:25:00 PM
I-70 at MD-27 45 100 45 None Calm Calm E 47 - 47 1/21/2017 8:25:00 PM
I-70 at MD-32 46 100 46 None Calm Calm N 47 - 47 1/21/2017 8:25:00 PM
I-83 at MD-137 44 100 44 None Calm Calm S 46 - 46 1/21/2017 8:25:00 PM
I-895 at I-95 - - - No Data Available - - No Data Available -
I-95 at I-695 NE 44 98 44 None Calm 7 mph W 45 - 47 1/21/2017 8:29:00 PM
I-95 at Patuxent River 47 100 47 None Calm 5 mph S 51 - 52 1/21/2017 8:25:00 PM
I-95 at Tydings Bridge - - - No Data Available - - No Data Available -
I-95/495 at I-295 54 82 49 None Calm Calm E 50 - 50 1/21/2017 8:25:00 PM
I-97 at MD-100 45 98 45 None Calm 5 mph SE 47 - 48 1/21/2017 8:25:00 PM
I-97 at MD-32 44 97 44 None 8 mph 10 mph N 46 - 46 1/21/2017 8:25:00 PM
MD 20 at MD 21 45 97 44 None Calm Calm NE 46 - 46 1/21/2017 8:25:00 PM
MD 231 at Patuxent River 44 100 44 None Calm Calm N 47 - 49 1/21/2017 8:25:00 PM
MD 260 at Cox Rd 42 99 42 None Calm Calm E 46 - 46 1/21/2017 8:25:00 PM
MD-135 at Salt Dome 52 85 48 None Calm Calm S 49 - 49 1/21/2017 8:25:00 PM
MD-140 at MD-97 45 100 45 None 4 mph 7 mph SW 47 - 47 1/21/2017 8:25:00 PM
MD-200 EB at Bonifant Rd 47 99 47 None Calm 4 mph S 47 - 49 1/21/2017 8:28:00 PM
MD-200 WB at Muncaster Mill Rd 47 96 46 None Calm 5 mph SW 48 - 49 1/21/2017 8:28:00 PM
MD-213 at Sassafras River 45 100 45 None Calm Calm NE 46 - 46 1/21/2017 8:25:00 PM
MD-24 at Rock St Park 44 100 44 None Calm Calm N 44 - 44 1/21/2017 8:25:00 PM
MD-30 at PA Line 44 100 44 None Calm 5 mph S 46 - 46 1/21/2017 8:25:00 PM
MD-301 at MD-305 46 97 45 None Calm Calm N 48 - 48 1/21/2017 8:25:00 PM
MD-33 at Knapps Narrows Drawbridge 44 99 43 None Calm 5 mph SE 47 - 47 1/21/2017 8:25:00 PM
MD-344 at MD-224 48 100 48 None Calm Calm N 49 - 49 1/21/2017 8:25:00 PM
MD-4 at Patuxent River 45 100 45 None - - No Data Available 47 - 48 1/21/2017 8:25:00 PM
MD-404 at Choptank River 46 91 44 None Calm Calm N 48 - 49 1/21/2017 8:25:00 PM
MD-43 at MD-150 44 100 44 None Calm Calm NE 46 - 46 1/21/2017 8:25:00 PM
MD-51 at Oldtown Salt Dome 45 96 44 None Calm 4 mph W 46 - 46 1/21/2017 8:25:00 PM
MD-64 at MD-418 - - - No Data Available - - No Data Available -
US-1 at Baltimore / Harford Co. Line 44 97 43 None Calm Calm N 44 - 45 1/21/2017 8:25:00 PM
US-1 at Conowingo Dam 45 100 45 None Calm Calm N 45 - 45 1/21/2017 8:25:00 PM
US-13 at US-113 44 98 44 None Calm 5 mph E 49 - 49 1/21/2017 8:25:00 PM
US-13 at US-50 - - - No Data Available - - No Data Available -
US-15 at MD-140 45 98 45 None Calm Calm E 47 - 47 1/21/2017 8:25:00 PM
US-301 at MD-5 47 100 47 None Calm 4 mph E 49 - 50 1/21/2017 8:25:00 PM
US-301 at Potomac 47 91 44 None Calm Calm SW 48 - 49 1/21/2017 8:25:00 PM
US-301 on HWN Bridge 47 100 47 None Calm 4 mph SE 50 - 50 1/21/2017 8:29:00 PM
US-340 at MD-180 46 100 46 None Calm Calm E 47 - 47 1/21/2017 8:25:00 PM
US-50 at Choptank 46 100 46 None Calm 5 mph SE 47 - 49 1/21/2017 8:25:00 PM
US-50 at I-95 47 98 47 None Calm Calm E 49 - 50 1/21/2017 8:25:00 PM
US-50 at MD-2 44 100 44 None Calm Calm S 46 - 46 1/21/2017 8:25:00 PM
US-50 at MD-331 51 83 46 None Calm Calm E 49 - 50 1/21/2017 8:25:00 PM
US-50 at OC Drawbridge 43 100 43 None Calm 4 mph S 46 - 46 1/21/2017 8:25:00 PM
US-50 at Table Rock Rd 53 83 48 None Calm Calm NE 51 - 51 1/21/2017 8:25:00 PM
US-50 Kent Narrow Bridge 45 100 45 None Calm Calm N 47 - 47 1/21/2017 8:25:00 PM
WPL Pier 31 44 100 44 None Calm 4 mph SE 46 - 46 1/21/2017 8:28:00 PM
Location Air RH Dwp Precip Type Wind Speed Wind Gust Direction Pavement Temperature Date/Time